Event-Kalender
Terminkalender Drucken Email help
Jahresansicht Monatsansicht Wochenansicht Heute Suche Zum ausgwählten Monat wechseln
Termine für
Montag, 19. Februar 2018



JEvents v1.5.5e   Copyright © 2006-2011

Zufallsbild

Aktuelle Termine

Mo Di Mi Do Fr Sa So
29 30 31 1 2 3 4
5 6 7 8 9 10 11
12 13 14 15 16 17 18
19 20 21 22 23 24 25
26 27 28 1 2 3 4

Pilotenwetter

[source: ADDS]
METAR
EDDH 230220Z 06005KT 9999 FEW048 M02/M04 Q1026 NOSIG =
TAF
TAF EDDH 222300Z 2300/2406 06006KT 9999 BKN040 BECMG 2308/2310 08011KT BECMG 2316/2318 07006KT =